sensor_id;sensor_type;location;lat;lon;timestamp;temperature;humidity
51305;HTU21D;37392;50.964;6.952;2024-01-30T00:02:23;7.20;111.39
51305;HTU21D;37392;50.964;6.952;2024-01-30T00:04:49;7.24;111.39
51305;HTU21D;37392;50.964;6.952;2024-01-30T00:07:14;7.32;110.95
51305;HTU21D;37392;50.964;6.952;2024-01-30T00:09:40;7.24;110.91
51305;HTU21D;37392;50.964;6.952;2024-01-30T00:12:06;7.20;111.18
51305;HTU21D;37392;50.964;6.952;2024-01-30T00:14:32;7.23;111.12
51305;HTU21D;37392;50.964;6.952;2024-01-30T00:16:57;7.31;110.78
51305;HTU21D;37392;50.964;6.952;2024-01-30T00:19:23;7.27;110.68
51305;HTU21D;37392;50.964;6.952;2024-01-30T00:21:48;7.20;110.87
51305;HTU21D;37392;50.964;6.952;2024-01-30T00:24:14;7.14;111.03
51305;HTU21D;37392;50.964;6.952;2024-01-30T00:26:39;7.13;111.51
51305;HTU21D;37392;50.964;6.952;2024-01-30T00:29:05;7.09;111.55
51305;HTU21D;37392;50.964;6.952;2024-01-30T00:31:31;7.01;112.10
51305;HTU21D;37392;50.964;6.952;2024-01-30T00:33:56;7.04;112.06
51305;HTU21D;37392;50.964;6.952;2024-01-30T00:36:22;7.13;112.02
51305;HTU21D;37392;50.964;6.952;2024-01-30T00:38:47;7.19;111.56
51305;HTU21D;37392;50.964;6.952;2024-01-30T00:41:13;7.17;111.61
51305;HTU21D;37392;50.964;6.952;2024-01-30T00:43:39;7.09;111.44
51305;HTU21D;37392;50.964;6.952;2024-01-30T00:46:04;7.02;111.96
51305;HTU21D;37392;50.964;6.952;2024-01-30T00:48:30;7.03;112.00
51305;HTU21D;37392;50.964;6.952;2024-01-30T00:50:55;7.04;112.18
51305;HTU21D;37392;50.964;6.952;2024-01-30T00:53:21;6.94;112.41
51305;HTU21D;37392;50.964;6.952;2024-01-30T00:55:47;6.96;112.64
51305;HTU21D;37392;50.964;6.952;2024-01-30T00:58:12;6.96;112.73
51305;HTU21D;37392;50.964;6.952;2024-01-30T01:00:38;7.01;112.59
51305;HTU21D;37392;50.964;6.952;2024-01-30T01:03:04;7.00;112.58
51305;HTU21D;37392;50.964;6.952;2024-01-30T01:05:30;7.03;112.55
51305;HTU21D;37392;50.964;6.952;2024-01-30T01:07:55;7.02;112.55
51305;HTU21D;37392;50.964;6.952;2024-01-30T01:10:21;7.03;112.24
51305;HTU21D;37392;50.964;6.952;2024-01-30T01:12:47;7.03;112.20
51305;HTU21D;37392;50.964;6.952;2024-01-30T01:15:13;7.08;112.23
51305;HTU21D;37392;50.964;6.952;2024-01-30T01:17:39;7.04;112.08
51305;HTU21D;37392;50.964;6.952;2024-01-30T01:20:06;6.97;112.39
51305;HTU21D;37392;50.964;6.952;2024-01-30T01:22:33;6.96;112.76
51305;HTU21D;37392;50.964;6.952;2024-01-30T01:24:59;6.95;112.64
51305;HTU21D;37392;50.964;6.952;2024-01-30T01:27:25;6.94;112.72
51305;HTU21D;37392;50.964;6.952;2024-01-30T01:29:52;7.03;112.40
51305;HTU21D;37392;50.964;6.952;2024-01-30T01:32:18;7.04;112.34
51305;HTU21D;37392;50.964;6.952;2024-01-30T01:34:43;7.10;112.21
51305;HTU21D;37392;50.964;6.952;2024-01-30T01:37:09;7.14;111.92
51305;HTU21D;37392;50.964;6.952;2024-01-30T01:39:34;7.09;111.98
51305;HTU21D;37392;50.964;6.952;2024-01-30T01:42:00;7.07;112.03
51305;HTU21D;37392;50.964;6.952;2024-01-30T01:44:25;7.09;112.26
51305;HTU21D;37392;50.964;6.952;2024-01-30T01:46:52;7.14;112.03
51305;HTU21D;37392;50.964;6.952;2024-01-30T01:49:19;7.18;111.88
51305;HTU21D;37392;50.964;6.952;2024-01-30T01:51:53;7.20;111.65
51305;HTU21D;37392;50.964;6.952;2024-01-30T01:54:22;7.28;111.32
51305;HTU21D;37392;50.964;6.952;2024-01-30T01:56:49;7.28;111.30
51305;HTU21D;37392;50.964;6.952;2024-01-30T01:59:14;7.31;110.89
51305;HTU21D;37392;50.964;6.952;2024-01-30T02:01:41;7.31;111.03
51305;HTU21D;37392;50.964;6.952;2024-01-30T02:04:07;7.31;111.07
51305;HTU21D;37392;50.964;6.952;2024-01-30T02:06:34;7.31;110.87
51305;HTU21D;37392;50.964;6.952;2024-01-30T02:09:00;7.32;110.91
51305;HTU21D;37392;50.964;6.952;2024-01-30T02:11:25;7.33;110.88
51305;HTU21D;37392;50.964;6.952;2024-01-30T02:13:52;7.32;110.70
51305;HTU21D;37392;50.964;6.952;2024-01-30T02:16:17;7.41;110.59
51305;HTU21D;37392;50.964;6.952;2024-01-30T02:18:43;7.40;110.45
51305;HTU21D;37392;50.964;6.952;2024-01-30T02:21:12;7.43;110.36
51305;HTU21D;37392;50.964;6.952;2024-01-30T02:23:43;7.44;110.19
51305;HTU21D;37392;50.964;6.952;2024-01-30T02:26:10;7.41;110.19
51305;HTU21D;37392;50.964;6.952;2024-01-30T02:28:37;7.46;109.93
51305;HTU21D;37392;50.964;6.952;2024-01-30T02:31:02;7.49;109.75
51305;HTU21D;37392;50.964;6.952;2024-01-30T02:33:28;7.55;109.71
51305;HTU21D;37392;50.964;6.952;2024-01-30T02:35:54;7.53;109.46
51305;HTU21D;37392;50.964;6.952;2024-01-30T02:38:20;7.52;109.52
51305;HTU21D;37392;50.964;6.952;2024-01-30T02:40:45;7.47;109.65
51305;HTU21D;37392;50.964;6.952;2024-01-30T02:43:12;7.49;109.73
51305;HTU21D;37392;50.964;6.952;2024-01-30T02:45:37;7.45;109.78
51305;HTU21D;37392;50.964;6.952;2024-01-30T02:48:03;7.49;109.61
51305;HTU21D;37392;50.964;6.952;2024-01-30T02:50:29;7.53;109.36
51305;HTU21D;37392;50.964;6.952;2024-01-30T02:52:54;7.53;109.36
51305;HTU21D;37392;50.964;6.952;2024-01-30T02:55:20;7.58;109.08
51305;HTU21D;37392;50.964;6.952;2024-01-30T02:57:45;7.58;108.93
51305;HTU21D;37392;50.964;6.952;2024-01-30T03:00:11;7.61;108.88
51305;HTU21D;37392;50.964;6.952;2024-01-30T03:02:37;7.56;108.90
51305;HTU21D;37392;50.964;6.952;2024-01-30T03:05:03;7.57;109.01
51305;HTU21D;37392;50.964;6.952;2024-01-30T03:07:30;7.60;108.94
51305;HTU21D;37392;50.964;6.952;2024-01-30T03:09:56;7.55;108.91
51305;HTU21D;37392;50.964;6.952;2024-01-30T03:12:22;7.54;109.11
51305;HTU21D;37392;50.964;6.952;2024-01-30T03:14:47;7.58;108.84
51305;HTU21D;37392;50.964;6.952;2024-01-30T03:17:14;7.61;108.74
51305;HTU21D;37392;50.964;6.952;2024-01-30T03:19:40;7.60;108.78
51305;HTU21D;37392;50.964;6.952;2024-01-30T03:22:05;7.56;108.94
51305;HTU21D;37392;50.964;6.952;2024-01-30T03:24:31;7.56;109.05
51305;HTU21D;37392;50.964;6.952;2024-01-30T03:26:57;7.56;109.14
51305;HTU21D;37392;50.964;6.952;2024-01-30T03:29:22;7.57;109.02
51305;HTU21D;37392;50.964;6.952;2024-01-30T03:31:47;7.56;109.09
51305;HTU21D;37392;50.964;6.952;2024-01-30T03:34:13;7.56;109.03
51305;HTU21D;37392;50.964;6.952;2024-01-30T03:36:39;7.53;108.94
51305;HTU21D;37392;50.964;6.952;2024-01-30T03:39:04;7.55;108.97
51305;HTU21D;37392;50.964;6.952;2024-01-30T03:41:30;7.55;109.11
51305;HTU21D;37392;50.964;6.952;2024-01-30T03:43:55;7.56;109.06
51305;HTU21D;37392;50.964;6.952;2024-01-30T03:46:21;7.52;109.26
51305;HTU21D;37392;50.964;6.952;2024-01-30T03:48:46;7.54;109.26
51305;HTU21D;37392;50.964;6.952;2024-01-30T03:51:12;7.58;109.12
51305;HTU21D;37392;50.964;6.952;2024-01-30T03:53:44;7.60;109.01
51305;HTU21D;37392;50.964;6.952;2024-01-30T03:56:11;7.59;108.97
51305;HTU21D;37392;50.964;6.952;2024-01-30T03:58:38;7.56;109.04
51305;HTU21D;37392;50.964;6.952;2024-01-30T04:01:04;7.63;108.90
51305;HTU21D;37392;50.964;6.952;2024-01-30T04:03:29;7.60;108.84
51305;HTU21D;37392;50.964;6.952;2024-01-30T04:05:55;7.57;109.04
51305;HTU21D;37392;50.964;6.952;2024-01-30T04:08:20;7.57;109.03
51305;HTU21D;37392;50.964;6.952;2024-01-30T04:10:46;7.55;109.32
51305;HTU21D;37392;50.964;6.952;2024-01-30T04:13:12;7.55;109.10
51305;HTU21D;37392;50.964;6.952;2024-01-30T04:15:38;7.50;109.36
51305;HTU21D;37392;50.964;6.952;2024-01-30T04:18:05;7.47;109.46
51305;HTU21D;37392;50.964;6.952;2024-01-30T04:20:30;7.46;109.55
51305;HTU21D;37392;50.964;6.952;2024-01-30T04:22:56;7.44;109.53
51305;HTU21D;37392;50.964;6.952;2024-01-30T04:25:21;7.44;109.58
51305;HTU21D;37392;50.964;6.952;2024-01-30T04:27:47;7.40;109.72
51305;HTU21D;37392;50.964;6.952;2024-01-30T04:30:13;7.46;109.55
51305;HTU21D;37392;50.964;6.952;2024-01-30T04:32:39;7.41;109.36
51305;HTU21D;37392;50.964;6.952;2024-01-30T04:35:04;7.41;109.59
51305;HTU21D;37392;50.964;6.952;2024-01-30T04:37:30;7.34;109.70
51305;HTU21D;37392;50.964;6.952;2024-01-30T04:39:56;7.32;109.91
51305;HTU21D;37392;50.964;6.952;2024-01-30T04:42:22;7.23;110.19
51305;HTU21D;37392;50.964;6.952;2024-01-30T04:44:47;7.23;110.38
51305;HTU21D;37392;50.964;6.952;2024-01-30T04:47:13;7.17;110.68
51305;HTU21D;37392;50.964;6.952;2024-01-30T04:49:42;7.16;110.92
51305;HTU21D;37392;50.964;6.952;2024-01-30T04:52:08;7.14;111.04
51305;HTU21D;37392;50.964;6.952;2024-01-30T04:54:35;7.04;111.25
51305;HTU21D;37392;50.964;6.952;2024-01-30T04:57:04;6.98;111.84
51305;HTU21D;37392;50.964;6.952;2024-01-30T04:59:33;7.07;111.81
51305;HTU21D;37392;50.964;6.952;2024-01-30T05:01:59;7.07;111.60
51305;HTU21D;37392;50.964;6.952;2024-01-30T05:04:24;7.01;111.56
51305;HTU21D;37392;50.964;6.952;2024-01-30T05:06:50;7.05;111.76
51305;HTU21D;37392;50.964;6.952;2024-01-30T05:09:15;7.03;111.60
51305;HTU21D;37392;50.964;6.952;2024-01-30T05:11:41;6.96;111.84
51305;HTU21D;37392;50.964;6.952;2024-01-30T05:14:07;6.84;112.20
51305;HTU21D;37392;50.964;6.952;2024-01-30T05:16:34;6.84;112.68
51305;HTU21D;37392;50.964;6.952;2024-01-30T05:19:00;6.83;112.68
51305;HTU21D;37392;50.964;6.952;2024-01-30T05:21:25;6.85;112.84
51305;HTU21D;37392;50.964;6.952;2024-01-30T05:23:51;6.86;112.64
51305;HTU21D;37392;50.964;6.952;2024-01-30T05:26:17;6.85;112.53
51305;HTU21D;37392;50.964;6.952;2024-01-30T05:28:43;6.96;112.32
51305;HTU21D;37392;50.964;6.952;2024-01-30T05:31:09;6.95;112.16
51305;HTU21D;37392;50.964;6.952;2024-01-30T05:33:35;7.00;111.99
51305;HTU21D;37392;50.964;6.952;2024-01-30T05:36:01;7.02;111.93
51305;HTU21D;37392;50.964;6.952;2024-01-30T05:38:26;7.03;111.72
51305;HTU21D;37392;50.964;6.952;2024-01-30T05:40:52;7.05;111.61
51305;HTU21D;37392;50.964;6.952;2024-01-30T05:43:18;7.07;111.49
51305;HTU21D;37392;50.964;6.952;2024-01-30T05:45:43;7.01;111.58
51305;HTU21D;37392;50.964;6.952;2024-01-30T05:48:09;7.03;111.73
51305;HTU21D;37392;50.964;6.952;2024-01-30T05:50:35;7.01;111.84
51305;HTU21D;37392;50.964;6.952;2024-01-30T05:53:00;7.00;111.91
51305;HTU21D;37392;50.964;6.952;2024-01-30T05:55:26;6.98;112.00
51305;HTU21D;37392;50.964;6.952;2024-01-30T05:57:52;6.86;112.22
51305;HTU21D;37392;50.964;6.952;2024-01-30T06:00:18;6.95;112.47
51305;HTU21D;37392;50.964;6.952;2024-01-30T06:02:43;6.85;112.58
51305;HTU21D;37392;50.964;6.952;2024-01-30T06:05:09;6.87;112.73
51305;HTU21D;37392;50.964;6.952;2024-01-30T06:07:35;6.88;112.62
51305;HTU21D;37392;50.964;6.952;2024-01-30T06:10:00;6.89;112.63
51305;HTU21D;37392;50.964;6.952;2024-01-30T06:12:27;6.96;112.42
51305;HTU21D;37392;50.964;6.952;2024-01-30T06:14:53;6.96;112.27
51305;HTU21D;37392;50.964;6.952;2024-01-30T06:17:22;7.01;112.13
51305;HTU21D;37392;50.964;6.952;2024-01-30T06:19:48;7.01;112.10
51305;HTU21D;37392;50.964;6.952;2024-01-30T06:22:15;6.99;112.16
51305;HTU21D;37392;50.964;6.952;2024-01-30T06:24:41;6.98;112.15
51305;HTU21D;37392;50.964;6.952;2024-01-30T06:27:06;7.01;112.07
51305;HTU21D;37392;50.964;6.952;2024-01-30T06:29:32;7.01;112.10
51305;HTU21D;37392;50.964;6.952;2024-01-30T06:31:57;6.99;112.19
51305;HTU21D;37392;50.964;6.952;2024-01-30T06:34:23;6.99;112.33
51305;HTU21D;37392;50.964;6.952;2024-01-30T06:36:48;6.95;112.45
51305;HTU21D;37392;50.964;6.952;2024-01-30T06:39:14;7.00;112.62
51305;HTU21D;37392;50.964;6.952;2024-01-30T06:41:39;7.00;112.58
51305;HTU21D;37392;50.964;6.952;2024-01-30T06:44:05;7.08;112.37
51305;HTU21D;37392;50.964;6.952;2024-01-30T06:46:32;7.17;111.99
51305;HTU21D;37392;50.964;6.952;2024-01-30T06:48:58;7.27;111.48
51305;HTU21D;37392;50.964;6.952;2024-01-30T06:51:23;7.34;111.07
51305;HTU21D;37392;50.964;6.952;2024-01-30T06:53:49;7.38;110.95
51305;HTU21D;37392;50.964;6.952;2024-01-30T06:56:15;7.38;110.72
51305;HTU21D;37392;50.964;6.952;2024-01-30T06:58:46;7.31;110.87
51305;HTU21D;37392;50.964;6.952;2024-01-30T07:01:15;7.31;111.16
51305;HTU21D;37392;50.964;6.952;2024-01-30T07:03:41;7.31;111.14
51305;HTU21D;37392;50.964;6.952;2024-01-30T07:06:07;7.41;110.89
51305;HTU21D;37392;50.964;6.952;2024-01-30T07:08:33;7.41;110.60
51305;HTU21D;37392;50.964;6.952;2024-01-30T07:10:58;7.45;110.40
51305;HTU21D;37392;50.964;6.952;2024-01-30T07:13:24;7.48;110.20
51305;HTU21D;37392;50.964;6.952;2024-01-30T07:15:50;7.55;109.83
51305;HTU21D;37392;50.964;6.952;2024-01-30T07:18:16;7.55;109.62
51305;HTU21D;37392;50.964;6.952;2024-01-30T07:20:41;7.54;109.50
51305;HTU21D;37392;50.964;6.952;2024-01-30T07:23:12;7.50;109.65
51305;HTU21D;37392;50.964;6.952;2024-01-30T07:25:44;7.50;109.80
51305;HTU21D;37392;50.964;6.952;2024-01-30T07:28:10;7.56;109.54
51305;HTU21D;37392;50.964;6.952;2024-01-30T07:30:37;7.55;109.44
51305;HTU21D;37392;50.964;6.952;2024-01-30T07:33:03;7.56;109.35
51305;HTU21D;37392;50.964;6.952;2024-01-30T07:35:28;7.58;109.33
51305;HTU21D;37392;50.964;6.952;2024-01-30T07:37:54;7.65;109.13
51305;HTU21D;37392;50.964;6.952;2024-01-30T07:40:19;7.69;108.73
51305;HTU21D;37392;50.964;6.952;2024-01-30T07:42:45;7.75;108.43
51305;HTU21D;37392;50.964;6.952;2024-01-30T07:45:11;7.76;108.25
51305;HTU21D;37392;50.964;6.952;2024-01-30T07:47:36;7.81;108.14
51305;HTU21D;37392;50.964;6.952;2024-01-30T07:50:02;7.83;107.91
51305;HTU21D;37392;50.964;6.952;2024-01-30T07:52:28;7.84;107.94
51305;HTU21D;37392;50.964;6.952;2024-01-30T07:54:53;7.89;107.75
51305;HTU21D;37392;50.964;6.952;2024-01-30T07:57:20;7.94;107.50
51305;HTU21D;37392;50.964;6.952;2024-01-30T07:59:45;7.96;107.53
51305;HTU21D;37392;50.964;6.952;2024-01-30T08:02:14;8.00;107.49
51305;HTU21D;37392;50.964;6.952;2024-01-30T08:04:39;8.05;107.24
51305;HTU21D;37392;50.964;6.952;2024-01-30T08:07:05;8.11;107.18
51305;HTU21D;37392;50.964;6.952;2024-01-30T08:09:31;8.14;106.86
51305;HTU21D;37392;50.964;6.952;2024-01-30T08:11:56;8.21;106.82
51305;HTU21D;37392;50.964;6.952;2024-01-30T08:14:22;8.30;106.37
51305;HTU21D;37392;50.964;6.952;2024-01-30T08:16:47;8.33;105.97
51305;HTU21D;37392;50.964;6.952;2024-01-30T08:19:14;8.39;105.84
51305;HTU21D;37392;50.964;6.952;2024-01-30T08:21:40;8.44;105.59
51305;HTU21D;37392;50.964;6.952;2024-01-30T08:24:06;8.46;105.43
51305;HTU21D;37392;50.964;6.952;2024-01-30T08:26:32;8.48;105.29
51305;HTU21D;37392;50.964;6.952;2024-01-30T08:28:58;8.49;105.21
51305;HTU21D;37392;50.964;6.952;2024-01-30T08:31:24;8.52;105.11
51305;HTU21D;37392;50.964;6.952;2024-01-30T08:33:50;8.51;105.19
51305;HTU21D;37392;50.964;6.952;2024-01-30T08:36:16;8.52;105.27
51305;HTU21D;37392;50.964;6.952;2024-01-30T08:38:42;8.58;105.08
51305;HTU21D;37392;50.964;6.952;2024-01-30T08:41:08;8.61;104.75
51305;HTU21D;37392;50.964;6.952;2024-01-30T08:43:34;8.67;104.58
51305;HTU21D;37392;50.964;6.952;2024-01-30T08:46:00;8.71;104.28
51305;HTU21D;37392;50.964;6.952;2024-01-30T08:48:26;8.74;104.18
51305;HTU21D;37392;50.964;6.952;2024-01-30T08:50:52;8.82;103.96
51305;HTU21D;37392;50.964;6.952;2024-01-30T08:53:18;8.91;103.60
51305;HTU21D;37392;50.964;6.952;2024-01-30T08:55:44;9.02;103.08
51305;HTU21D;37392;50.964;6.952;2024-01-30T08:58:10;9.10;102.47
51305;HTU21D;37392;50.964;6.952;2024-01-30T09:00:35;9.22;101.91
51305;HTU21D;37392;50.964;6.952;2024-01-30T09:03:01;9.39;101.22
51305;HTU21D;37392;50.964;6.952;2024-01-30T09:05:27;9.59;100.55
51305;HTU21D;37392;50.964;6.952;2024-01-30T09:07:52;9.68;99.31
51305;HTU21D;37392;50.964;6.952;2024-01-30T09:10:18;9.69;98.81
51305;HTU21D;37392;50.964;6.952;2024-01-30T09:12:44;9.76;98.83
51305;HTU21D;37392;50.964;6.952;2024-01-30T09:15:10;9.79;98.26
51305;HTU21D;37392;50.964;6.952;2024-01-30T09:17:35;9.80;97.96
51305;HTU21D;37392;50.964;6.952;2024-01-30T09:20:01;9.79;97.76
51305;HTU21D;37392;50.964;6.952;2024-01-30T09:22:27;9.99;97.53
51305;HTU21D;37392;50.964;6.952;2024-01-30T09:24:52;10.10;97.04
51305;HTU21D;37392;50.964;6.952;2024-01-30T09:27:18;10.27;96.41
51305;HTU21D;37392;50.964;6.952;2024-01-30T09:29:43;10.41;95.78
51305;HTU21D;37392;50.964;6.952;2024-01-30T09:32:12;10.53;95.35
51305;HTU21D;37392;50.964;6.952;2024-01-30T09:34:37;10.59;95.04
51305;HTU21D;37392;50.964;6.952;2024-01-30T09:37:04;10.73;94.38
51305;HTU21D;37392;50.964;6.952;2024-01-30T09:39:30;10.80;93.95
51305;HTU21D;37392;50.964;6.952;2024-01-30T09:42:28;10.87;93.74
51305;HTU21D;37392;50.964;6.952;2024-01-30T09:45:00;10.90;93.52
51305;HTU21D;37392;50.964;6.952;2024-01-30T09:47:26;10.94;93.21
51305;HTU21D;37392;50.964;6.952;2024-01-30T09:49:52;11.16;93.01
51305;HTU21D;37392;50.964;6.952;2024-01-30T09:52:18;11.59;91.26
51305;HTU21D;37392;50.964;6.952;2024-01-30T09:54:45;11.72;89.95
51305;HTU21D;37392;50.964;6.952;2024-01-30T09:57:11;11.63;89.92
51305;HTU21D;37392;50.964;6.952;2024-01-30T09:59:37;11.69;90.24
51305;HTU21D;37392;50.964;6.952;2024-01-30T10:02:03;11.81;89.89
51305;HTU21D;37392;50.964;6.952;2024-01-30T10:04:30;11.84;89.50
51305;HTU21D;37392;50.964;6.952;2024-01-30T10:06:56;12.06;89.15
51305;HTU21D;37392;50.964;6.952;2024-01-30T10:09:24;12.04;88.53
51305;HTU21D;37392;50.964;6.952;2024-01-30T10:11:51;12.11;88.56
51305;HTU21D;37392;50.964;6.952;2024-01-30T10:14:16;12.11;88.35
51305;HTU21D;37392;50.964;6.952;2024-01-30T10:16:42;12.14;88.35
51305;HTU21D;37392;50.964;6.952;2024-01-30T10:19:09;12.07;88.35
51305;HTU21D;37392;50.964;6.952;2024-01-30T10:21:34;12.13;88.60
51305;HTU21D;37392;50.964;6.952;2024-01-30T10:24:00;12.16;88.21
51305;HTU21D;37392;50.964;6.952;2024-01-30T10:26:26;12.17;88.41
51305;HTU21D;37392;50.964;6.952;2024-01-30T10:28:51;12.17;88.34
51305;HTU21D;37392;50.964;6.952;2024-01-30T10:31:18;12.10;88.45
51305;HTU21D;37392;50.964;6.952;2024-01-30T10:33:44;12.04;88.72
51305;HTU21D;37392;50.964;6.952;2024-01-30T10:36:13;11.98;89.29
51305;HTU21D;37392;50.964;6.952;2024-01-30T10:38:42;11.87;89.70
51305;HTU21D;37392;50.964;6.952;2024-01-30T10:41:11;11.81;90.47
51305;HTU21D;37392;50.964;6.952;2024-01-30T10:43:47;11.81;90.72
51305;HTU21D;37392;50.964;6.952;2024-01-30T10:46:18;11.88;90.53
51305;HTU21D;37392;50.964;6.952;2024-01-30T10:48:49;11.87;90.44
51305;HTU21D;37392;50.964;6.952;2024-01-30T10:51:16;11.97;90.27
51305;HTU21D;37392;50.964;6.952;2024-01-30T10:53:44;12.06;90.00
51305;HTU21D;37392;50.964;6.952;2024-01-30T10:56:12;12.19;89.70
51305;HTU21D;37392;50.964;6.952;2024-01-30T10:58:38;12.29;89.38
51305;HTU21D;37392;50.964;6.952;2024-01-30T11:01:05;12.36;89.03
51305;HTU21D;37392;50.964;6.952;2024-01-30T11:03:32;12.50;88.79
51305;HTU21D;37392;50.964;6.952;2024-01-30T11:06:00;12.50;88.34
51305;HTU21D;37392;50.964;6.952;2024-01-30T11:08:27;12.38;88.73
51305;HTU21D;37392;50.964;6.952;2024-01-30T11:10:58;12.43;88.80
51305;HTU21D;37392;50.964;6.952;2024-01-30T11:13:27;12.42;88.87
51305;HTU21D;37392;50.964;6.952;2024-01-30T11:15:54;12.52;88.66
51305;HTU21D;37392;50.964;6.952;2024-01-30T11:18:26;12.58;88.50
51305;HTU21D;37392;50.964;6.952;2024-01-30T11:20:56;12.71;88.20
51305;HTU21D;37392;50.964;6.952;2024-01-30T11:23:23;12.67;88.07
51305;HTU21D;37392;50.964;6.952;2024-01-30T11:25:49;12.76;88.20
51305;HTU21D;37392;50.964;6.952;2024-01-30T11:28:17;12.85;87.86
51305;HTU21D;37392;50.964;6.952;2024-01-30T11:30:44;12.88;87.59
51305;HTU21D;37392;50.964;6.952;2024-01-30T11:33:10;12.96;87.41
51305;HTU21D;37392;50.964;6.952;2024-01-30T11:35:41;13.15;87.19
51305;HTU21D;37392;50.964;6.952;2024-01-30T11:38:08;13.27;86.58
51305;HTU21D;37392;50.964;6.952;2024-01-30T11:40:35;13.26;86.13
51305;HTU21D;37392;50.964;6.952;2024-01-30T11:43:03;13.22;86.45
51305;HTU21D;37392;50.964;6.952;2024-01-30T11:45:32;13.26;86.47
51305;HTU21D;37392;50.964;6.952;2024-01-30T11:47:58;13.37;86.21
51305;HTU21D;37392;50.964;6.952;2024-01-30T11:50:38;13.53;85.67
51305;HTU21D;37392;50.964;6.952;2024-01-30T11:53:05;13.55;85.37
51305;HTU21D;37392;50.964;6.952;2024-01-30T11:55:31;13.62;85.35
51305;HTU21D;37392;50.964;6.952;2024-01-30T11:57:57;13.69;84.98
51305;HTU21D;37392;50.964;6.952;2024-01-30T12:00:23;13.73;85.06
51305;HTU21D;37392;50.964;6.952;2024-01-30T12:02:54;13.79;84.69
51305;HTU21D;37392;50.964;6.952;2024-01-30T12:05:27;13.80;84.85
51305;HTU21D;37392;50.964;6.952;2024-01-30T12:07:53;13.81;84.70
51305;HTU21D;37392;50.964;6.952;2024-01-30T12:10:19;13.70;84.77
51305;HTU21D;37392;50.964;6.952;2024-01-30T12:12:48;13.81;84.84
51305;HTU21D;37392;50.964;6.952;2024-01-30T12:15:15;13.84;84.49
51305;HTU21D;37392;50.964;6.952;2024-01-30T12:17:41;13.84;84.61
51305;HTU21D;37392;50.964;6.952;2024-01-30T12:20:13;13.69;84.81
51305;HTU21D;37392;50.964;6.952;2024-01-30T12:22:41;13.67;85.26
51305;HTU21D;37392;50.964;6.952;2024-01-30T12:25:12;13.64;85.49
51305;HTU21D;37392;50.964;6.952;2024-01-30T12:27:49;13.73;85.34
51305;HTU21D;37392;50.964;6.952;2024-01-30T12:30:15;13.71;85.47
51305;HTU21D;37392;50.964;6.952;2024-01-30T12:32:44;13.76;85.22
51305;HTU21D;37392;50.964;6.952;2024-01-30T12:35:15;13.71;85.33
51305;HTU21D;37392;50.964;6.952;2024-01-30T12:37:43;13.77;85.26
51305;HTU21D;37392;50.964;6.952;2024-01-30T12:40:09;13.85;85.06
51305;HTU21D;37392;50.964;6.952;2024-01-30T12:42:36;13.84;85.05
51305;HTU21D;37392;50.964;6.952;2024-01-30T12:45:03;13.80;85.09
51305;HTU21D;37392;50.964;6.952;2024-01-30T12:47:30;13.77;85.24
51305;HTU21D;37392;50.964;6.952;2024-01-30T12:49:56;13.92;85.26
51305;HTU21D;37392;50.964;6.952;2024-01-30T12:52:22;14.03;84.69
51305;HTU21D;37392;50.964;6.952;2024-01-30T12:54:48;14.15;84.29
51305;HTU21D;37392;50.964;6.952;2024-01-30T12:57:14;14.26;83.84
51305;HTU21D;37392;50.964;6.952;2024-01-30T12:59:40;14.32;83.45
51305;HTU21D;37392;50.964;6.952;2024-01-30T13:02:07;14.34;83.27
51305;HTU21D;37392;50.964;6.952;2024-01-30T13:04:33;14.32;83.54
51305;HTU21D;37392;50.964;6.952;2024-01-30T13:06:59;14.29;83.42
51305;HTU21D;37392;50.964;6.952;2024-01-30T13:09:26;14.20;83.78
51305;HTU21D;37392;50.964;6.952;2024-01-30T13:11:51;14.32;83.85
51305;HTU21D;37392;50.964;6.952;2024-01-30T13:14:18;14.47;83.81
51305;HTU21D;37392;50.964;6.952;2024-01-30T13:16:44;14.52;83.49
51305;HTU21D;37392;50.964;6.952;2024-01-30T13:19:10;14.62;83.24
51305;HTU21D;37392;50.964;6.952;2024-01-30T13:21:36;14.60;83.00
51305;HTU21D;37392;50.964;6.952;2024-01-30T13:24:02;14.67;83.00
51305;HTU21D;37392;50.964;6.952;2024-01-30T13:26:27;14.51;83.39
51305;HTU21D;37392;50.964;6.952;2024-01-30T13:28:53;14.54;84.40
51305;HTU21D;37392;50.964;6.952;2024-01-30T13:31:19;14.57;84.81
51305;HTU21D;37392;50.964;6.952;2024-01-30T13:33:45;14.58;85.45
51305;HTU21D;37392;50.964;6.952;2024-01-30T13:36:11;14.49;86.36
51305;HTU21D;37392;50.964;6.952;2024-01-30T13:38:37;14.45;86.85
51305;HTU21D;37392;50.964;6.952;2024-01-30T13:41:04;14.43;87.35
51305;HTU21D;37392;50.964;6.952;2024-01-30T13:43:30;14.42;87.86
51305;HTU21D;37392;50.964;6.952;2024-01-30T13:45:55;14.32;88.52
51305;HTU21D;37392;50.964;6.952;2024-01-30T13:48:21;14.21;88.99
51305;HTU21D;37392;50.964;6.952;2024-01-30T13:50:47;14.13;89.40
51305;HTU21D;37392;50.964;6.952;2024-01-30T13:53:13;14.10;89.70
51305;HTU21D;37392;50.964;6.952;2024-01-30T13:55:39;14.09;89.88
51305;HTU21D;37392;50.964;6.952;2024-01-30T13:58:05;14.05;89.88
51305;HTU21D;37392;50.964;6.952;2024-01-30T14:00:31;14.04;89.89
51305;HTU21D;37392;50.964;6.952;2024-01-30T14:02:57;13.99;89.99
51305;HTU21D;37392;50.964;6.952;2024-01-30T14:05:24;13.96;90.21
51305;HTU21D;37392;50.964;6.952;2024-01-30T14:07:51;13.92;90.41
51305;HTU21D;37392;50.964;6.952;2024-01-30T14:10:17;13.83;90.67
51305;HTU21D;37392;50.964;6.952;2024-01-30T14:12:43;13.82;90.68
51305;HTU21D;37392;50.964;6.952;2024-01-30T14:15:10;13.74;90.95
51305;HTU21D;37392;50.964;6.952;2024-01-30T14:17:36;13.70;91.35
51305;HTU21D;37392;50.964;6.952;2024-01-30T14:20:06;13.68;91.55
51305;HTU21D;37392;50.964;6.952;2024-01-30T14:22:33;13.67;91.66
51305;HTU21D;37392;50.964;6.952;2024-01-30T14:25:00;13.62;92.17
51305;HTU21D;37392;50.964;6.952;2024-01-30T14:27:27;13.59;92.19
51305;HTU21D;37392;50.964;6.952;2024-01-30T14:29:53;13.56;92.10
51305;HTU21D;37392;50.964;6.952;2024-01-30T14:32:18;13.55;92.07
51305;HTU21D;37392;50.964;6.952;2024-01-30T14:34:44;13.55;92.26
51305;HTU21D;37392;50.964;6.952;2024-01-30T14:37:10;13.56;92.33
51305;HTU21D;37392;50.964;6.952;2024-01-30T14:39:35;13.55;92.29
51305;HTU21D;37392;50.964;6.952;2024-01-30T14:42:03;13.59;92.24
51305;HTU21D;37392;50.964;6.952;2024-01-30T14:44:29;13.60;92.28
51305;HTU21D;37392;50.964;6.952;2024-01-30T14:46:56;13.59;92.19
51305;HTU21D;37392;50.964;6.952;2024-01-30T14:49:21;13.53;92.28
51305;HTU21D;37392;50.964;6.952;2024-01-30T14:51:47;13.55;92.35
51305;HTU21D;37392;50.964;6.952;2024-01-30T14:54:13;13.46;92.46
51305;HTU21D;37392;50.964;6.952;2024-01-30T14:56:38;13.39;92.81
51305;HTU21D;37392;50.964;6.952;2024-01-30T14:59:04;13.30;93.14
51305;HTU21D;37392;50.964;6.952;2024-01-30T15:01:31;13.24;93.61
51305;HTU21D;37392;50.964;6.952;2024-01-30T15:03:56;13.21;93.78
51305;HTU21D;37392;50.964;6.952;2024-01-30T15:06:22;13.20;93.95
51305;HTU21D;37392;50.964;6.952;2024-01-30T15:08:50;13.19;94.01
51305;HTU21D;37392;50.964;6.952;2024-01-30T15:11:17;13.21;93.94
51305;HTU21D;37392;50.964;6.952;2024-01-30T15:13:42;13.17;93.98